sensor_id;sensor_type;location;lat;lon;timestamp;temperature;humidity
26262;DHT22;13988;52.446;13.280;2023-02-10T00:02:25;1.00;99.90
26262;DHT22;13988;52.446;13.280;2023-02-10T00:04:50;1.00;99.90
26262;DHT22;13988;52.446;13.280;2023-02-10T00:07:17;0.90;99.90
26262;DHT22;13988;52.446;13.280;2023-02-10T00:09:43;1.00;99.90
26262;DHT22;13988;52.446;13.280;2023-02-10T00:12:09;1.00;99.90
26262;DHT22;13988;52.446;13.280;2023-02-10T00:14:37;1.10;99.90
26262;DHT22;13988;52.446;13.280;2023-02-10T00:17:03;1.10;99.90
26262;DHT22;13988;52.446;13.280;2023-02-10T00:19:29;1.10;99.90
26262;DHT22;13988;52.446;13.280;2023-02-10T00:21:57;1.00;99.90
26262;DHT22;13988;52.446;13.280;2023-02-10T00:24:23;1.10;99.90
26262;DHT22;13988;52.446;13.280;2023-02-10T00:26:49;1.00;99.90
26262;DHT22;13988;52.446;13.280;2023-02-10T00:29:15;1.10;99.90
26262;DHT22;13988;52.446;13.280;2023-02-10T00:31:42;1.10;99.90
26262;DHT22;13988;52.446;13.280;2023-02-10T00:34:13;1.10;99.90
26262;DHT22;13988;52.446;13.280;2023-02-10T00:36:39;1.00;99.90
26262;DHT22;13988;52.446;13.280;2023-02-10T00:39:04;1.00;99.90
26262;DHT22;13988;52.446;13.280;2023-02-10T00:41:30;1.10;99.90
26262;DHT22;13988;52.446;13.280;2023-02-10T00:43:56;1.20;99.90
26262;DHT22;13988;52.446;13.280;2023-02-10T00:46:22;1.20;99.90
26262;DHT22;13988;52.446;13.280;2023-02-10T00:48:48;1.20;99.90
26262;DHT22;13988;52.446;13.280;2023-02-10T00:51:14;1.20;99.90
26262;DHT22;13988;52.446;13.280;2023-02-10T00:53:40;1.30;99.90
26262;DHT22;13988;52.446;13.280;2023-02-10T00:56:07;1.30;99.90
26262;DHT22;13988;52.446;13.280;2023-02-10T00:58:32;1.20;99.90
26262;DHT22;13988;52.446;13.280;2023-02-10T01:00:58;1.30;99.90
26262;DHT22;13988;52.446;13.280;2023-02-10T01:03:24;1.30;99.90
26262;DHT22;13988;52.446;13.280;2023-02-10T01:05:50;1.30;99.90
26262;DHT22;13988;52.446;13.280;2023-02-10T01:08:16;1.20;99.90
26262;DHT22;13988;52.446;13.280;2023-02-10T01:10:42;1.30;99.90
26262;DHT22;13988;52.446;13.280;2023-02-10T01:13:09;1.30;99.90
26262;DHT22;13988;52.446;13.280;2023-02-10T01:15:35;1.30;99.90
26262;DHT22;13988;52.446;13.280;2023-02-10T01:18:01;1.30;99.90
26262;DHT22;13988;52.446;13.280;2023-02-10T01:20:27;1.10;99.90
26262;DHT22;13988;52.446;13.280;2023-02-10T01:22:53;1.00;99.90
26262;DHT22;13988;52.446;13.280;2023-02-10T01:25:18;0.90;99.90
26262;DHT22;13988;52.446;13.280;2023-02-10T01:27:44;0.80;99.90
26262;DHT22;13988;52.446;13.280;2023-02-10T01:30:10;0.80;99.90
26262;DHT22;13988;52.446;13.280;2023-02-10T01:32:36;0.60;99.90
26262;DHT22;13988;52.446;13.280;2023-02-10T01:35:03;0.70;99.90
26262;DHT22;13988;52.446;13.280;2023-02-10T01:37:29;0.60;99.90
26262;DHT22;13988;52.446;13.280;2023-02-10T01:39:54;0.60;99.90
26262;DHT22;13988;52.446;13.280;2023-02-10T01:42:20;0.40;99.90
26262;DHT22;13988;52.446;13.280;2023-02-10T01:47:11;0.50;99.90
26262;DHT22;13988;52.446;13.280;2023-02-10T01:49:47;0.40;99.90
26262;DHT22;13988;52.446;13.280;2023-02-10T01:52:18;0.40;99.90
26262;DHT22;13988;52.446;13.280;2023-02-10T01:54:53;0.40;99.90
26262;DHT22;13988;52.446;13.280;2023-02-10T01:57:20;0.40;99.90
26262;DHT22;13988;52.446;13.280;2023-02-10T01:59:46;0.40;99.90
26262;DHT22;13988;52.446;13.280;2023-02-10T02:02:13;0.00;99.90
26262;DHT22;13988;52.446;13.280;2023-02-10T02:04:45;-0.10;99.90
26262;DHT22;13988;52.446;13.280;2023-02-10T02:07:12;-0.20;99.90
26262;DHT22;13988;52.446;13.280;2023-02-10T02:09:39;-0.30;99.90
26262;DHT22;13988;52.446;13.280;2023-02-10T02:12:09;-0.40;99.90
26262;DHT22;13988;52.446;13.280;2023-02-10T02:14:53;-0.10;99.90
26262;DHT22;13988;52.446;13.280;2023-02-10T02:23:18;-0.20;99.90
26262;DHT22;13988;52.446;13.280;2023-02-10T02:26:12;-0.20;99.90
26262;DHT22;13988;52.446;13.280;2023-02-10T02:34:21;0.10;99.90
26262;DHT22;13988;52.446;13.280;2023-02-10T02:36:52;0.00;99.90
26262;DHT22;13988;52.446;13.280;2023-02-10T02:39:21;-0.10;99.90
26262;DHT22;13988;52.446;13.280;2023-02-10T02:41:57;-0.20;99.90
26262;DHT22;13988;52.446;13.280;2023-02-10T02:44:23;-0.20;99.90
26262;DHT22;13988;52.446;13.280;2023-02-10T02:46:59;-0.30;99.90
26262;DHT22;13988;52.446;13.280;2023-02-10T02:49:40;-0.20;99.90
26262;DHT22;13988;52.446;13.280;2023-02-10T02:52:14;-0.20;99.90
26262;DHT22;13988;52.446;13.280;2023-02-10T02:58:02;-0.40;99.90
26262;DHT22;13988;52.446;13.280;2023-02-10T03:00:31;-0.60;99.90
26262;DHT22;13988;52.446;13.280;2023-02-10T03:02:58;-0.60;99.90
26262;DHT22;13988;52.446;13.280;2023-02-10T03:05:29;-0.60;99.90
26262;DHT22;13988;52.446;13.280;2023-02-10T03:07:55;-0.50;99.90
26262;DHT22;13988;52.446;13.280;2023-02-10T03:10:21;-0.40;99.90
26262;DHT22;13988;52.446;13.280;2023-02-10T03:12:47;-0.30;99.90
26262;DHT22;13988;52.446;13.280;2023-02-10T03:15:13;-0.40;99.90
26262;DHT22;13988;52.446;13.280;2023-02-10T03:17:39;-0.50;99.90
26262;DHT22;13988;52.446;13.280;2023-02-10T03:20:05;-0.50;99.90
26262;DHT22;13988;52.446;13.280;2023-02-10T03:22:31;-0.60;99.90
26262;DHT22;13988;52.446;13.280;2023-02-10T03:24:57;-0.40;99.90
26262;DHT22;13988;52.446;13.280;2023-02-10T03:27:23;-0.30;99.90
26262;DHT22;13988;52.446;13.280;2023-02-10T03:29:48;-0.50;99.90
26262;DHT22;13988;52.446;13.280;2023-02-10T03:32:15;-0.60;99.90
26262;DHT22;13988;52.446;13.280;2023-02-10T03:34:41;-0.60;99.90
26262;DHT22;13988;52.446;13.280;2023-02-10T03:37:07;-0.40;99.90
26262;DHT22;13988;52.446;13.280;2023-02-10T03:39:33;-0.20;99.90
26262;DHT22;13988;52.446;13.280;2023-02-10T03:41:59;-0.20;99.90
26262;DHT22;13988;52.446;13.280;2023-02-10T03:44:24;-0.30;99.90
26262;DHT22;13988;52.446;13.280;2023-02-10T03:46:50;-0.20;99.90
26262;DHT22;13988;52.446;13.280;2023-02-10T03:49:16;-0.10;99.90
26262;DHT22;13988;52.446;13.280;2023-02-10T03:51:41;0.00;99.90
26262;DHT22;13988;52.446;13.280;2023-02-10T03:54:07;-0.10;99.90
26262;DHT22;13988;52.446;13.280;2023-02-10T03:56:33;0.10;99.90
26262;DHT22;13988;52.446;13.280;2023-02-10T03:59:03;0.20;99.90
26262;DHT22;13988;52.446;13.280;2023-02-10T04:01:29;0.40;99.90
26262;DHT22;13988;52.446;13.280;2023-02-10T04:03:55;0.50;99.90
26262;DHT22;13988;52.446;13.280;2023-02-10T04:06:20;0.60;99.90
26262;DHT22;13988;52.446;13.280;2023-02-10T04:08:47;0.60;99.90
26262;DHT22;13988;52.446;13.280;2023-02-10T04:11:14;0.70;99.90
26262;DHT22;13988;52.446;13.280;2023-02-10T04:13:40;0.70;99.90
26262;DHT22;13988;52.446;13.280;2023-02-10T04:16:14;0.70;99.90
26262;DHT22;13988;52.446;13.280;2023-02-10T04:18:40;0.80;99.90
26262;DHT22;13988;52.446;13.280;2023-02-10T04:21:08;0.90;99.90
26262;DHT22;13988;52.446;13.280;2023-02-10T04:23:35;0.70;99.90
26262;DHT22;13988;52.446;13.280;2023-02-10T04:26:01;0.80;99.90
26262;DHT22;13988;52.446;13.280;2023-02-10T04:28:26;0.80;99.90
26262;DHT22;13988;52.446;13.280;2023-02-10T04:30:57;0.80;99.90
26262;DHT22;13988;52.446;13.280;2023-02-10T04:33:23;0.80;99.90
26262;DHT22;13988;52.446;13.280;2023-02-10T04:35:51;0.80;99.90
26262;DHT22;13988;52.446;13.280;2023-02-10T04:38:17;0.80;99.90
26262;DHT22;13988;52.446;13.280;2023-02-10T04:40:43;0.90;99.90
26262;DHT22;13988;52.446;13.280;2023-02-10T04:43:10;1.00;99.90
26262;DHT22;13988;52.446;13.280;2023-02-10T04:45:36;0.80;99.90
26262;DHT22;13988;52.446;13.280;2023-02-10T04:48:02;0.80;99.90
26262;DHT22;13988;52.446;13.280;2023-02-10T04:50:28;0.90;99.90
26262;DHT22;13988;52.446;13.280;2023-02-10T04:52:54;0.90;99.90
26262;DHT22;13988;52.446;13.280;2023-02-10T04:55:19;0.90;99.90
26262;DHT22;13988;52.446;13.280;2023-02-10T04:57:45;0.90;99.90
26262;DHT22;13988;52.446;13.280;2023-02-10T05:00:11;0.90;99.90
26262;DHT22;13988;52.446;13.280;2023-02-10T05:02:37;0.90;99.90
26262;DHT22;13988;52.446;13.280;2023-02-10T05:05:03;1.00;99.90
26262;DHT22;13988;52.446;13.280;2023-02-10T05:07:29;0.90;99.90
26262;DHT22;13988;52.446;13.280;2023-02-10T05:09:55;0.80;99.90
26262;DHT22;13988;52.446;13.280;2023-02-10T05:12:21;0.90;99.90
26262;DHT22;13988;52.446;13.280;2023-02-10T05:14:47;0.90;99.90
26262;DHT22;13988;52.446;13.280;2023-02-10T05:17:12;1.00;99.90
26262;DHT22;13988;52.446;13.280;2023-02-10T05:19:38;1.00;99.90
26262;DHT22;13988;52.446;13.280;2023-02-10T05:22:03;0.90;99.90
26262;DHT22;13988;52.446;13.280;2023-02-10T05:24:29;1.00;99.90
26262;DHT22;13988;52.446;13.280;2023-02-10T05:26:55;0.90;99.90
26262;DHT22;13988;52.446;13.280;2023-02-10T05:29:21;0.90;99.90
26262;DHT22;13988;52.446;13.280;2023-02-10T05:31:46;0.90;99.90
26262;DHT22;13988;52.446;13.280;2023-02-10T05:34:12;0.80;99.90
26262;DHT22;13988;52.446;13.280;2023-02-10T05:36:37;0.80;99.90
26262;DHT22;13988;52.446;13.280;2023-02-10T05:39:03;0.90;99.90
26262;DHT22;13988;52.446;13.280;2023-02-10T05:41:47;1.00;99.90
26262;DHT22;13988;52.446;13.280;2023-02-10T05:44:13;1.00;99.90
26262;DHT22;13988;52.446;13.280;2023-02-10T05:46:38;1.00;99.90
26262;DHT22;13988;52.446;13.280;2023-02-10T05:49:04;0.90;99.90
26262;DHT22;13988;52.446;13.280;2023-02-10T05:51:30;1.00;99.90
26262;DHT22;13988;52.446;13.280;2023-02-10T05:53:55;0.90;99.90
26262;DHT22;13988;52.446;13.280;2023-02-10T05:56:21;0.90;99.90
26262;DHT22;13988;52.446;13.280;2023-02-10T05:58:47;0.80;99.90
26262;DHT22;13988;52.446;13.280;2023-02-10T06:01:12;0.60;99.90
26262;DHT22;13988;52.446;13.280;2023-02-10T06:03:38;0.50;99.90
26262;DHT22;13988;52.446;13.280;2023-02-10T06:06:04;0.40;99.90
26262;DHT22;13988;52.446;13.280;2023-02-10T06:08:29;0.40;99.90
26262;DHT22;13988;52.446;13.280;2023-02-10T06:10:55;0.30;99.90
26262;DHT22;13988;52.446;13.280;2023-02-10T06:13:21;0.20;99.90
26262;DHT22;13988;52.446;13.280;2023-02-10T06:15:46;0.20;99.90
26262;DHT22;13988;52.446;13.280;2023-02-10T06:18:12;0.40;99.90
26262;DHT22;13988;52.446;13.280;2023-02-10T06:20:38;0.30;99.90
26262;DHT22;13988;52.446;13.280;2023-02-10T06:23:03;0.20;99.90
26262;DHT22;13988;52.446;13.280;2023-02-10T06:25:29;0.30;99.90
26262;DHT22;13988;52.446;13.280;2023-02-10T06:27:55;0.30;99.90
26262;DHT22;13988;52.446;13.280;2023-02-10T06:30:20;0.20;99.90
26262;DHT22;13988;52.446;13.280;2023-02-10T06:32:46;0.10;99.90
26262;DHT22;13988;52.446;13.280;2023-02-10T06:35:12;0.00;99.90
26262;DHT22;13988;52.446;13.280;2023-02-10T06:37:38;0.10;99.90
26262;DHT22;13988;52.446;13.280;2023-02-10T06:40:04;0.00;99.90
26262;DHT22;13988;52.446;13.280;2023-02-10T06:42:30;0.10;99.90
26262;DHT22;13988;52.446;13.280;2023-02-10T06:44:56;0.00;99.90
26262;DHT22;13988;52.446;13.280;2023-02-10T06:47:22;0.00;99.90
26262;DHT22;13988;52.446;13.280;2023-02-10T06:49:48;0.00;99.90
26262;DHT22;13988;52.446;13.280;2023-02-10T06:52:13;0.10;99.90
26262;DHT22;13988;52.446;13.280;2023-02-10T06:54:39;0.00;99.90
26262;DHT22;13988;52.446;13.280;2023-02-10T06:57:05;0.00;99.90
26262;DHT22;13988;52.446;13.280;2023-02-10T06:59:34;0.00;99.90
26262;DHT22;13988;52.446;13.280;2023-02-10T07:02:00;0.10;99.90
26262;DHT22;13988;52.446;13.280;2023-02-10T07:04:31;0.00;99.90
26262;DHT22;13988;52.446;13.280;2023-02-10T07:06:57;0.20;99.90
26262;DHT22;13988;52.446;13.280;2023-02-10T07:09:23;0.20;99.90
26262;DHT22;13988;52.446;13.280;2023-02-10T07:11:49;0.40;99.90
26262;DHT22;13988;52.446;13.280;2023-02-10T07:14:15;0.70;99.90
26262;DHT22;13988;52.446;13.280;2023-02-10T07:16:41;0.70;99.90
26262;DHT22;13988;52.446;13.280;2023-02-10T07:19:06;0.70;99.90
26262;DHT22;13988;52.446;13.280;2023-02-10T07:21:32;0.70;99.90
26262;DHT22;13988;52.446;13.280;2023-02-10T07:23:58;0.80;99.90
26262;DHT22;13988;52.446;13.280;2023-02-10T07:26:26;0.90;99.90
26262;DHT22;13988;52.446;13.280;2023-02-10T07:28:51;0.90;99.90
26262;DHT22;13988;52.446;13.280;2023-02-10T07:31:17;1.00;99.90
26262;DHT22;13988;52.446;13.280;2023-02-10T07:33:43;1.20;99.90
26262;DHT22;13988;52.446;13.280;2023-02-10T07:36:08;1.10;99.90
26262;DHT22;13988;52.446;13.280;2023-02-10T07:38:35;1.10;99.90
26262;DHT22;13988;52.446;13.280;2023-02-10T07:41:01;1.20;99.90
26262;DHT22;13988;52.446;13.280;2023-02-10T07:43:27;1.30;99.90
26262;DHT22;13988;52.446;13.280;2023-02-10T07:45:53;1.40;99.90
26262;DHT22;13988;52.446;13.280;2023-02-10T07:48:19;1.40;99.90
26262;DHT22;13988;52.446;13.280;2023-02-10T07:50:46;1.50;99.90
26262;DHT22;13988;52.446;13.280;2023-02-10T07:53:12;1.70;99.90
26262;DHT22;13988;52.446;13.280;2023-02-10T07:55:39;1.60;99.90
26262;DHT22;13988;52.446;13.280;2023-02-10T07:58:05;1.60;99.90
26262;DHT22;13988;52.446;13.280;2023-02-10T08:00:31;1.60;99.90
26262;DHT22;13988;52.446;13.280;2023-02-10T08:02:57;1.60;99.90
26262;DHT22;13988;52.446;13.280;2023-02-10T08:05:23;1.60;99.90
26262;DHT22;13988;52.446;13.280;2023-02-10T08:07:48;1.80;99.90
26262;DHT22;13988;52.446;13.280;2023-02-10T08:10:14;1.80;99.90
26262;DHT22;13988;52.446;13.280;2023-02-10T08:12:40;1.90;99.90
26262;DHT22;13988;52.446;13.280;2023-02-10T08:15:07;2.00;99.90
26262;DHT22;13988;52.446;13.280;2023-02-10T08:17:33;2.10;99.90
26262;DHT22;13988;52.446;13.280;2023-02-10T08:19:59;2.20;99.90
26262;DHT22;13988;52.446;13.280;2023-02-10T08:22:24;2.30;99.90
26262;DHT22;13988;52.446;13.280;2023-02-10T08:24:50;2.30;99.90
26262;DHT22;13988;52.446;13.280;2023-02-10T08:27:16;2.40;99.90
26262;DHT22;13988;52.446;13.280;2023-02-10T08:29:42;2.50;99.90
26262;DHT22;13988;52.446;13.280;2023-02-10T08:32:07;2.50;99.90
26262;DHT22;13988;52.446;13.280;2023-02-10T08:34:33;2.70;99.90
26262;DHT22;13988;52.446;13.280;2023-02-10T08:36:59;2.80;99.90
26262;DHT22;13988;52.446;13.280;2023-02-10T08:39:26;2.80;99.90
26262;DHT22;13988;52.446;13.280;2023-02-10T08:41:52;2.80;99.90
26262;DHT22;13988;52.446;13.280;2023-02-10T08:44:18;2.80;99.90
26262;DHT22;13988;52.446;13.280;2023-02-10T08:46:43;2.90;99.90
26262;DHT22;13988;52.446;13.280;2023-02-10T08:49:09;2.90;99.90
26262;DHT22;13988;52.446;13.280;2023-02-10T08:51:35;3.00;99.90
26262;DHT22;13988;52.446;13.280;2023-02-10T08:54:04;3.10;99.90
26262;DHT22;13988;52.446;13.280;2023-02-10T08:56:30;3.10;99.90
26262;DHT22;13988;52.446;13.280;2023-02-10T08:58:55;3.10;99.90
26262;DHT22;13988;52.446;13.280;2023-02-10T09:01:23;3.20;99.90
26262;DHT22;13988;52.446;13.280;2023-02-10T09:03:52;3.40;99.90
26262;DHT22;13988;52.446;13.280;2023-02-10T09:06:27;3.70;99.90
26262;DHT22;13988;52.446;13.280;2023-02-10T09:08:54;3.80;99.90
26262;DHT22;13988;52.446;13.280;2023-02-10T09:11:21;3.80;99.90
26262;DHT22;13988;52.446;13.280;2023-02-10T09:13:49;3.80;99.90
26262;DHT22;13988;52.446;13.280;2023-02-10T09:16:15;3.80;99.90
26262;DHT22;13988;52.446;13.280;2023-02-10T09:18:41;3.80;99.90
26262;DHT22;13988;52.446;13.280;2023-02-10T09:21:06;3.70;99.90
26262;DHT22;13988;52.446;13.280;2023-02-10T09:23:32;3.70;99.90
26262;DHT22;13988;52.446;13.280;2023-02-10T09:25:59;3.80;99.90
26262;DHT22;13988;52.446;13.280;2023-02-10T09:28:25;4.00;99.90
26262;DHT22;13988;52.446;13.280;2023-02-10T09:30:51;3.80;99.90
26262;DHT22;13988;52.446;13.280;2023-02-10T09:33:18;3.70;99.90
26262;DHT22;13988;52.446;13.280;2023-02-10T09:35:44;3.60;99.90
26262;DHT22;13988;52.446;13.280;2023-02-10T09:38:11;3.70;99.90
26262;DHT22;13988;52.446;13.280;2023-02-10T09:54:59;3.90;99.90
26262;DHT22;13988;52.446;13.280;2023-02-10T09:57:41;4.00;99.90
26262;DHT22;13988;52.446;13.280;2023-02-10T10:00:31;4.10;99.90
26262;DHT22;13988;52.446;13.280;2023-02-10T10:03:00;4.10;99.90
26262;DHT22;13988;52.446;13.280;2023-02-10T10:05:33;4.20;99.90
26262;DHT22;13988;52.446;13.280;2023-02-10T10:08:04;4.40;99.90
26262;DHT22;13988;52.446;13.280;2023-02-10T10:10:40;4.40;99.90
26262;DHT22;13988;52.446;13.280;2023-02-10T10:13:18;4.20;99.90
26262;DHT22;13988;52.446;13.280;2023-02-10T10:16:07;4.20;99.90
26262;DHT22;13988;52.446;13.280;2023-02-10T10:18:53;4.20;99.90
26262;DHT22;13988;52.446;13.280;2023-02-10T10:21:57;4.30;99.90
26262;DHT22;13988;52.446;13.280;2023-02-10T10:24:38;4.20;99.90
26262;DHT22;13988;52.446;13.280;2023-02-10T10:27:35;4.40;99.90
26262;DHT22;13988;52.446;13.280;2023-02-10T10:30:17;4.50;99.90
26262;DHT22;13988;52.446;13.280;2023-02-10T10:32:57;4.30;99.90
26262;DHT22;13988;52.446;13.280;2023-02-10T10:35:31;4.50;99.90
26262;DHT22;13988;52.446;13.280;2023-02-10T10:38:10;4.30;99.90
26262;DHT22;13988;52.446;13.280;2023-02-10T10:40:37;4.40;99.90
26262;DHT22;13988;52.446;13.280;2023-02-10T10:43:03;4.40;99.90
26262;DHT22;13988;52.446;13.280;2023-02-10T10:45:41;4.40;99.90
26262;DHT22;13988;52.446;13.280;2023-02-10T10:50:37;4.50;99.90
26262;DHT22;13988;52.446;13.280;2023-02-10T10:53:15;4.50;99.90
26262;DHT22;13988;52.446;13.280;2023-02-10T10:55:45;4.50;99.90
26262;DHT22;13988;52.446;13.280;2023-02-10T10:58:20;4.50;99.90
26262;DHT22;13988;52.446;13.280;2023-02-10T11:00:54;4.60;99.90
26262;DHT22;13988;52.446;13.280;2023-02-10T11:03:21;4.80;99.90
26262;DHT22;13988;52.446;13.280;2023-02-10T11:06:13;4.80;99.90
26262;DHT22;13988;52.446;13.280;2023-02-10T11:11:15;5.20;99.90
26262;DHT22;13988;52.446;13.280;2023-02-10T11:13:50;5.30;99.90
26262;DHT22;13988;52.446;13.280;2023-02-10T11:16:16;5.20;99.90
26262;DHT22;13988;52.446;13.280;2023-02-10T11:21:19;5.30;99.90
26262;DHT22;13988;52.446;13.280;2023-02-10T11:23:53;5.40;99.90
26262;DHT22;13988;52.446;13.280;2023-02-10T11:26:24;5.40;99.90
26262;DHT22;13988;52.446;13.280;2023-02-10T11:28:51;5.40;99.90
26262;DHT22;13988;52.446;13.280;2023-02-10T11:31:25;5.40;99.90
26262;DHT22;13988;52.446;13.280;2023-02-10T11:33:59;5.30;99.90
26262;DHT22;13988;52.446;13.280;2023-02-10T11:36:38;5.30;99.90
26262;DHT22;13988;52.446;13.280;2023-02-10T11:39:14;5.50;99.90
26262;DHT22;13988;52.446;13.280;2023-02-10T11:41:41;5.70;99.90
26262;DHT22;13988;52.446;13.280;2023-02-10T11:44:29;6.00;99.90
26262;DHT22;13988;52.446;13.280;2023-02-10T11:49:22;6.10;99.90
26262;DHT22;13988;52.446;13.280;2023-02-10T11:51:55;6.10;99.90
26262;DHT22;13988;52.446;13.280;2023-02-10T11:54:22;6.30;99.90
26262;DHT22;13988;52.446;13.280;2023-02-10T12:14:07;6.10;99.90
26262;DHT22;13988;52.446;13.280;2023-02-10T12:19:24;5.90;99.90
26262;DHT22;13988;52.446;13.280;2023-02-10T12:27:59;6.80;99.90
26262;DHT22;13988;52.446;13.280;2023-02-10T12:33:20;6.20;99.90
26262;DHT22;13988;52.446;13.280;2023-02-10T12:42:04;6.50;99.90
26262;DHT22;13988;52.446;13.280;2023-02-10T12:52:26;6.40;99.90
26262;DHT22;13988;52.446;13.280;2023-02-10T12:55:00;6.20;99.90
26262;DHT22;13988;52.446;13.280;2023-02-10T12:57:46;6.20;99.90
26262;DHT22;13988;52.446;13.280;2023-02-10T13:02:53;6.10;99.90
26262;DHT22;13988;52.446;13.280;2023-02-10T13:05:23;6.20;99.90
26262;DHT22;13988;52.446;13.280;2023-02-10T13:07:56;6.10;99.90
26262;DHT22;13988;52.446;13.280;2023-02-10T13:10:29;6.30;99.90
26262;DHT22;13988;52.446;13.280;2023-02-10T13:13:11;6.20;99.90
26262;DHT22;13988;52.446;13.280;2023-02-10T13:15:45;6.20;99.90
26262;DHT22;13988;52.446;13.280;2023-02-10T13:18:19;6.10;99.90
26262;DHT22;13988;52.446;13.280;2023-02-10T13:23:31;6.00;99.90
26262;DHT22;13988;52.446;13.280;2023-02-10T13:32:57;5.90;99.90
26262;DHT22;13988;52.446;13.280;2023-02-10T13:34:58;6.00;99.90
26262;DHT22;13988;52.446;13.280;2023-02-10T13:37:44;5.90;99.90
26262;DHT22;13988;52.446;13.280;2023-02-10T13:42:59;5.80;99.90
26262;DHT22;13988;52.446;13.280;2023-02-10T13:45:28;5.90;99.90
26262;DHT22;13988;52.446;13.280;2023-02-10T13:47:58;6.00;99.90
26262;DHT22;13988;52.446;13.280;2023-02-10T13:50:48;5.90;99.90
26262;DHT22;13988;52.446;13.280;2023-02-10T13:53:37;5.80;99.90
26262;DHT22;13988;52.446;13.280;2023-02-10T13:56:27;5.80;99.90
26262;DHT22;13988;52.446;13.280;2023-02-10T13:59:05;5.70;99.90
26262;DHT22;13988;52.446;13.280;2023-02-10T14:04:26;5.80;99.90
26262;DHT22;13988;52.446;13.280;2023-02-10T14:06:53;5.80;99.90
26262;DHT22;13988;52.446;13.280;2023-02-10T14:09:21;6.00;99.90
26262;DHT22;13988;52.446;13.280;2023-02-10T14:11:58;6.00;99.90
26262;DHT22;13988;52.446;13.280;2023-02-10T14:19:44;6.20;99.90
26262;DHT22;13988;52.446;13.280;2023-02-10T14:24:57;7.10;99.90
26262;DHT22;13988;52.446;13.280;2023-02-10T14:27:26;6.90;99.90
26262;DHT22;13988;52.446;13.280;2023-02-10T14:29:58;6.60;99.90
26262;DHT22;13988;52.446;13.280;2023-02-10T14:32:25;6.50;99.90
26262;DHT22;13988;52.446;13.280;2023-02-10T14:34:55;7.10;99.90
26262;DHT22;13988;52.446;13.280;2023-02-10T14:37:22;6.80;99.90
26262;DHT22;13988;52.446;13.280;2023-02-10T14:39:57;6.60;99.90
26262;DHT22;13988;52.446;13.280;2023-02-10T14:42:23;6.30;99.90
26262;DHT22;13988;52.446;13.280;2023-02-10T14:44:53;6.20;99.90
26262;DHT22;13988;52.446;13.280;2023-02-10T14:47:21;6.10;99.90
26262;DHT22;13988;52.446;13.280;2023-02-10T14:49:50;6.00;99.90
26262;DHT22;13988;52.446;13.280;2023-02-10T14:52:34;5.90;99.90
26262;DHT22;13988;52.446;13.280;2023-02-10T14:55:01;5.90;99.90
26262;DHT22;13988;52.446;13.280;2023-02-10T14:57:27;5.90;99.90
26262;DHT22;13988;52.446;13.280;2023-02-10T14:59:55;5.80;99.90
26262;DHT22;13988;52.446;13.280;2023-02-10T15:02:24;5.70;99.90
26262;DHT22;13988;52.446;13.280;2023-02-10T15:04:53;5.60;99.90
26262;DHT22;13988;52.446;13.280;2023-02-10T15:07:32;5.60;99.90
26262;DHT22;13988;52.446;13.280;2023-02-10T15:10:06;5.60;99.90
26262;DHT22;13988;52.446;13.280;2023-02-10T15:12:32;5.70;99.90
26262;DHT22;13988;52.446;13.280;2023-02-10T15:15:22;5.60;99.90
26262;DHT22;13988;52.446;13.280;2023-02-10T15:17:53;5.60;99.90
26262;DHT22;13988;52.446;13.280;2023-02-10T15:20:29;5.60;99.90
26262;DHT22;13988;52.446;13.280;2023-02-10T15:28:26;5.40;99.90
26262;DHT22;13988;52.446;13.280;2023-02-10T15:38:48;5.00;99.90
26262;DHT22;13988;52.446;13.280;2023-02-10T15:46:43;4.90;99.90
26262;DHT22;13988;52.446;13.280;2023-02-10T15:49:13;4.90;99.90
26262;DHT22;13988;52.446;13.280;2023-02-10T15:51:43;4.80;99.90
26262;DHT22;13988;52.446;13.280;2023-02-10T15:54:18;4.80;99.90
26262;DHT22;13988;52.446;13.280;2023-02-10T15:57:01;4.70;99.90
26262;DHT22;13988;52.446;13.280;2023-02-10T15:59:28;4.70;99.90
26262;DHT22;13988;52.446;13.280;2023-02-10T16:01:58;4.60;99.90
26262;DHT22;13988;52.446;13.280;2023-02-10T16:04:25;4.60;99.90
26262;DHT22;13988;52.446;13.280;2023-02-10T16:06:53;4.50;99.90
26262;DHT22;13988;52.446;13.280;2023-02-10T16:09:18;4.50;99.90
26262;DHT22;13988;52.446;13.280;2023-02-10T16:11:44;4.40;99.90
26262;DHT22;13988;52.446;13.280;2023-02-10T16:14:10;4.30;99.90
26262;DHT22;13988;52.446;13.280;2023-02-10T16:16:42;4.30;99.90
26262;DHT22;13988;52.446;13.280;2023-02-10T16:19:13;4.20;99.90
26262;DHT22;13988;52.446;13.280;2023-02-10T16:21:40;4.10;99.90
26262;DHT22;13988;52.446;13.280;2023-02-10T16:24:07;3.90;99.90
26262;DHT22;13988;52.446;13.280;2023-02-10T16:26:35;3.90;99.90
26262;DHT22;13988;52.446;13.280;2023-02-10T16:29:01;3.90;99.90
26262;DHT22;13988;52.446;13.280;2023-02-10T16:31:26;3.90;99.90
26262;DHT22;13988;52.446;13.280;2023-02-10T16:33:52;3.80;99.90
26262;DHT22;13988;52.446;13.280;2023-02-10T16:36:17;3.70;99.90
26262;DHT22;13988;52.446;13.280;2023-02-10T16:38:44;3.80;99.90
26262;DHT22;13988;52.446;13.280;2023-02-10T16:41:09;3.60;99.90
26262;DHT22;13988;52.446;13.280;2023-02-10T16:43:35;3.60;99.90
26262;DHT22;13988;52.446;13.280;2023-02-10T16:46:01;3.60;99.90
26262;DHT22;13988;52.446;13.280;2023-02-10T16:48:27;3.60;99.90
26262;DHT22;13988;52.446;13.280;2023-02-10T16:50:53;3.60;99.90
26262;DHT22;13988;52.446;13.280;2023-02-10T16:53:19;3.50;99.90
26262;DHT22;13988;52.446;13.280;2023-02-10T16:55:45;3.60;99.90
26262;DHT22;13988;52.446;13.280;2023-02-10T16:58:13;3.50;99.90
26262;DHT22;13988;52.446;13.280;2023-02-10T17:00:39;3.50;99.90
26262;DHT22;13988;52.446;13.280;2023-02-10T17:03:05;3.50;99.90
26262;DHT22;13988;52.446;13.280;2023-02-10T17:05:31;3.50;99.90
26262;DHT22;13988;52.446;13.280;2023-02-10T17:07:58;3.60;99.90
26262;DHT22;13988;52.446;13.280;2023-02-10T17:10:27;3.50;99.90
26262;DHT22;13988;52.446;13.280;2023-02-10T17:12:53;3.40;99.90
26262;DHT22;13988;52.446;13.280;2023-02-10T17:15:20;3.40;99.90
26262;DHT22;13988;52.446;13.280;2023-02-10T17:17:46;3.40;99.90
26262;DHT22;13988;52.446;13.280;2023-02-10T17:20:28;3.30;99.90
26262;DHT22;13988;52.446;13.280;2023-02-10T17:22:54;3.40;99.90
26262;DHT22;13988;52.446;13.280;2023-02-10T17:25:21;3.30;99.90
26262;DHT22;13988;52.446;13.280;2023-02-10T17:27:48;3.30;99.90
26262;DHT22;13988;52.446;13.280;2023-02-10T17:30:15;3.50;99.90
26262;DHT22;13988;52.446;13.280;2023-02-10T17:32:42;3.40;99.90
26262;DHT22;13988;52.446;13.280;2023-02-10T17:35:14;3.30;99.90
26262;DHT22;13988;52.446;13.280;2023-02-10T17:37:40;3.20;99.90
26262;DHT22;13988;52.446;13.280;2023-02-10T17:40:12;3.30;99.90
26262;DHT22;13988;52.446;13.280;2023-02-10T17:42:47;3.20;99.90
26262;DHT22;13988;52.446;13.280;2023-02-10T17:45:14;3.30;99.90
26262;DHT22;13988;52.446;13.280;2023-02-10T17:47:41;3.20;99.90
26262;DHT22;13988;52.446;13.280;2023-02-10T17:50:07;3.30;99.90